sensor_id;sensor_type;location;lat;lon;timestamp;P1;durP1;ratioP1;P2;durP2;ratioP2
81195;SDS011;70671;43.888;-79.394;2023-06-22T00:00:56;8.95;;;3.92;;
81195;SDS011;70671;43.888;-79.394;2023-06-22T00:03:23;8.43;;;3.50;;
81195;SDS011;70671;43.888;-79.394;2023-06-22T00:05:50;7.93;;;3.65;;
81195;SDS011;70671;43.888;-79.394;2023-06-22T00:08:17;7.65;;;3.63;;
81195;SDS011;70671;43.888;-79.394;2023-06-22T00:10:44;7.75;;;3.67;;
81195;SDS011;70671;43.888;-79.394;2023-06-22T00:13:11;7.85;;;3.70;;
81195;SDS011;70671;43.888;-79.394;2023-06-22T00:15:38;7.40;;;3.40;;
81195;SDS011;70671;43.888;-79.394;2023-06-22T00:18:06;7.68;;;3.45;;
81195;SDS011;70671;43.888;-79.394;2023-06-22T00:20:32;7.28;;;3.40;;
81195;SDS011;70671;43.888;-79.394;2023-06-22T00:23:02;6.80;;;3.40;;
81195;SDS011;70671;43.888;-79.394;2023-06-22T00:25:36;7.88;;;3.85;;
81195;SDS011;70671;43.888;-79.394;2023-06-22T00:28:06;8.40;;;3.42;;
81195;SDS011;70671;43.888;-79.394;2023-06-22T00:30:33;8.93;;;3.47;;
81195;SDS011;70671;43.888;-79.394;2023-06-22T00:32:59;7.88;;;3.75;;
81195;SDS011;70671;43.888;-79.394;2023-06-22T00:35:33;8.63;;;3.55;;
81195;SDS011;70671;43.888;-79.394;2023-06-22T00:38:00;7.40;;;3.33;;
81195;SDS011;70671;43.888;-79.394;2023-06-22T00:40:27;7.40;;;3.40;;
81195;SDS011;70671;43.888;-79.394;2023-06-22T00:42:54;7.55;;;3.50;;
81195;SDS011;70671;43.888;-79.394;2023-06-22T00:45:21;7.85;;;3.10;;
81195;SDS011;70671;43.888;-79.394;2023-06-22T00:47:51;7.47;;;3.33;;
81195;SDS011;70671;43.888;-79.394;2023-06-22T00:50:19;8.43;;;3.50;;
81195;SDS011;70671;43.888;-79.394;2023-06-22T00:52:56;8.73;;;3.80;;
81195;SDS011;70671;43.888;-79.394;2023-06-22T00:55:24;7.88;;;3.20;;
81195;SDS011;70671;43.888;-79.394;2023-06-22T00:57:51;7.53;;;3.72;;
81195;SDS011;70671;43.888;-79.394;2023-06-22T01:00:25;7.57;;;3.60;;
81195;SDS011;70671;43.888;-79.394;2023-06-22T01:02:51;7.35;;;3.47;;
81195;SDS011;70671;43.888;-79.394;2023-06-22T01:05:18;7.03;;;3.60;;
81195;SDS011;70671;43.888;-79.394;2023-06-22T01:07:56;8.68;;;3.53;;
81195;SDS011;70671;43.888;-79.394;2023-06-22T01:10:43;7.30;;;3.10;;
81195;SDS011;70671;43.888;-79.394;2023-06-22T01:13:29;7.00;;;3.08;;
81195;SDS011;70671;43.888;-79.394;2023-06-22T01:16:23;7.78;;;3.67;;
81195;SDS011;70671;43.888;-79.394;2023-06-22T01:18:54;7.50;;;3.53;;
81195;SDS011;70671;43.888;-79.394;2023-06-22T01:21:26;7.88;;;3.30;;
81195;SDS011;70671;43.888;-79.394;2023-06-22T01:24:06;8.23;;;3.70;;
81195;SDS011;70671;43.888;-79.394;2023-06-22T01:26:43;8.57;;;3.92;;
81195;SDS011;70671;43.888;-79.394;2023-06-22T01:29:29;7.13;;;3.30;;
81195;SDS011;70671;43.888;-79.394;2023-06-22T01:31:57;10.27;;;3.42;;
81195;SDS011;70671;43.888;-79.394;2023-06-22T01:34:25;7.68;;;3.17;;
81195;SDS011;70671;43.888;-79.394;2023-06-22T01:37:00;7.90;;;4.10;;
81195;SDS011;70671;43.888;-79.394;2023-06-22T01:39:30;8.48;;;3.22;;
81195;SDS011;70671;43.888;-79.394;2023-06-22T01:41:57;7.80;;;3.45;;
81195;SDS011;70671;43.888;-79.394;2023-06-22T01:44:25;8.40;;;3.83;;
81195;SDS011;70671;43.888;-79.394;2023-06-22T01:46:52;7.07;;;3.17;;
81195;SDS011;70671;43.888;-79.394;2023-06-22T01:49:18;7.22;;;3.17;;
81195;SDS011;70671;43.888;-79.394;2023-06-22T01:51:44;8.30;;;3.45;;
81195;SDS011;70671;43.888;-79.394;2023-06-22T01:54:11;8.80;;;3.83;;
81195;SDS011;70671;43.888;-79.394;2023-06-22T01:56:36;9.25;;;3.83;;
81195;SDS011;70671;43.888;-79.394;2023-06-22T01:59:04;7.22;;;3.63;;
81195;SDS011;70671;43.888;-79.394;2023-06-22T02:01:57;10.48;;;3.72;;
81195;SDS011;70671;43.888;-79.394;2023-06-22T02:04:31;8.88;;;3.72;;
81195;SDS011;70671;43.888;-79.394;2023-06-22T02:07:02;9.25;;;3.53;;
81195;SDS011;70671;43.888;-79.394;2023-06-22T02:09:34;8.05;;;3.33;;
81195;SDS011;70671;43.888;-79.394;2023-06-22T02:12:02;8.90;;;3.63;;
81195;SDS011;70671;43.888;-79.394;2023-06-22T02:14:30;7.85;;;3.58;;
81195;SDS011;70671;43.888;-79.394;2023-06-22T02:16:57;7.25;;;3.30;;
81195;SDS011;70671;43.888;-79.394;2023-06-22T02:19:24;7.30;;;3.40;;
81195;SDS011;70671;43.888;-79.394;2023-06-22T02:21:52;11.20;;;3.95;;
81195;SDS011;70671;43.888;-79.394;2023-06-22T02:24:18;8.60;;;3.97;;
81195;SDS011;70671;43.888;-79.394;2023-06-22T02:26:44;11.60;;;4.50;;
81195;SDS011;70671;43.888;-79.394;2023-06-22T02:29:11;7.03;;;2.92;;
81195;SDS011;70671;43.888;-79.394;2023-06-22T02:31:37;10.20;;;3.78;;
81195;SDS011;70671;43.888;-79.394;2023-06-22T02:34:03;9.27;;;4.00;;
81195;SDS011;70671;43.888;-79.394;2023-06-22T02:36:29;8.10;;;3.65;;
81195;SDS011;70671;43.888;-79.394;2023-06-22T02:38:55;10.50;;;3.42;;
81195;SDS011;70671;43.888;-79.394;2023-06-22T02:41:24;7.35;;;3.30;;
81195;SDS011;70671;43.888;-79.394;2023-06-22T02:43:50;8.10;;;3.60;;
81195;SDS011;70671;43.888;-79.394;2023-06-22T02:46:17;6.72;;;3.08;;
81195;SDS011;70671;43.888;-79.394;2023-06-22T02:48:43;8.02;;;3.75;;
81195;SDS011;70671;43.888;-79.394;2023-06-22T02:51:09;8.25;;;3.30;;
81195;SDS011;70671;43.888;-79.394;2023-06-22T02:53:35;9.80;;;3.55;;
81195;SDS011;70671;43.888;-79.394;2023-06-22T02:56:02;7.00;;;2.95;;
81195;SDS011;70671;43.888;-79.394;2023-06-22T02:58:31;7.95;;;4.30;;
81195;SDS011;70671;43.888;-79.394;2023-06-22T03:01:04;8.20;;;3.65;;
81195;SDS011;70671;43.888;-79.394;2023-06-22T03:03:33;9.85;;;4.13;;
81195;SDS011;70671;43.888;-79.394;2023-06-22T03:05:59;7.88;;;3.70;;
81195;SDS011;70671;43.888;-79.394;2023-06-22T03:08:26;9.02;;;3.83;;
81195;SDS011;70671;43.888;-79.394;2023-06-22T03:10:52;7.43;;;3.33;;
81195;SDS011;70671;43.888;-79.394;2023-06-22T03:13:19;9.80;;;3.92;;
81195;SDS011;70671;43.888;-79.394;2023-06-22T03:15:45;9.57;;;3.50;;
81195;SDS011;70671;43.888;-79.394;2023-06-22T03:18:11;9.05;;;3.72;;
81195;SDS011;70671;43.888;-79.394;2023-06-22T03:20:37;8.18;;;3.67;;
81195;SDS011;70671;43.888;-79.394;2023-06-22T03:23:03;8.90;;;4.43;;
81195;SDS011;70671;43.888;-79.394;2023-06-22T03:25:30;8.60;;;3.60;;
81195;SDS011;70671;43.888;-79.394;2023-06-22T03:27:56;8.23;;;3.70;;
81195;SDS011;70671;43.888;-79.394;2023-06-22T03:30:22;9.25;;;3.88;;
81195;SDS011;70671;43.888;-79.394;2023-06-22T03:32:48;9.13;;;4.15;;
81195;SDS011;70671;43.888;-79.394;2023-06-22T03:35:14;8.07;;;4.07;;
81195;SDS011;70671;43.888;-79.394;2023-06-22T03:37:40;9.45;;;3.50;;
81195;SDS011;70671;43.888;-79.394;2023-06-22T03:40:06;7.53;;;3.50;;
81195;SDS011;70671;43.888;-79.394;2023-06-22T03:42:35;6.50;;;3.38;;
81195;SDS011;70671;43.888;-79.394;2023-06-22T03:45:02;6.57;;;3.33;;
81195;SDS011;70671;43.888;-79.394;2023-06-22T03:47:29;8.25;;;4.03;;
81195;SDS011;70671;43.888;-79.394;2023-06-22T03:49:55;8.52;;;4.07;;
81195;SDS011;70671;43.888;-79.394;2023-06-22T03:52:21;11.77;;;4.00;;
81195;SDS011;70671;43.888;-79.394;2023-06-22T03:54:47;11.20;;;4.70;;
81195;SDS011;70671;43.888;-79.394;2023-06-22T03:57:13;12.25;;;4.88;;
81195;SDS011;70671;43.888;-79.394;2023-06-22T03:59:39;11.38;;;4.32;;
81195;SDS011;70671;43.888;-79.394;2023-06-22T04:02:05;8.75;;;4.38;;
81195;SDS011;70671;43.888;-79.394;2023-06-22T04:04:31;11.55;;;4.10;;
81195;SDS011;70671;43.888;-79.394;2023-06-22T04:06:58;9.85;;;4.38;;
81195;SDS011;70671;43.888;-79.394;2023-06-22T04:09:24;9.60;;;4.03;;
81195;SDS011;70671;43.888;-79.394;2023-06-22T04:11:51;12.82;;;4.60;;
81195;SDS011;70671;43.888;-79.394;2023-06-22T04:14:17;7.70;;;3.72;;
81195;SDS011;70671;43.888;-79.394;2023-06-22T04:16:43;8.25;;;4.32;;
81195;SDS011;70671;43.888;-79.394;2023-06-22T04:19:09;8.30;;;4.45;;
81195;SDS011;70671;43.888;-79.394;2023-06-22T04:21:41;10.45;;;4.55;;
81195;SDS011;70671;43.888;-79.394;2023-06-22T04:24:10;10.38;;;3.90;;
81195;SDS011;70671;43.888;-79.394;2023-06-22T04:26:36;8.80;;;4.05;;
81195;SDS011;70671;43.888;-79.394;2023-06-22T04:29:03;8.40;;;4.03;;
81195;SDS011;70671;43.888;-79.394;2023-06-22T04:31:33;10.43;;;4.55;;
81195;SDS011;70671;43.888;-79.394;2023-06-22T04:34:02;8.07;;;3.90;;
81195;SDS011;70671;43.888;-79.394;2023-06-22T04:36:37;8.18;;;4.18;;
81195;SDS011;70671;43.888;-79.394;2023-06-22T04:39:10;11.10;;;4.90;;
81195;SDS011;70671;43.888;-79.394;2023-06-22T04:44:09;10.82;;;4.50;;
81195;SDS011;70671;43.888;-79.394;2023-06-22T04:46:35;12.05;;;4.88;;
81195;SDS011;70671;43.888;-79.394;2023-06-22T04:49:06;10.38;;;4.55;;
81195;SDS011;70671;43.888;-79.394;2023-06-22T04:51:38;9.35;;;4.68;;
81195;SDS011;70671;43.888;-79.394;2023-06-22T04:54:06;10.13;;;4.32;;
81195;SDS011;70671;43.888;-79.394;2023-06-22T04:56:33;10.50;;;5.05;;
81195;SDS011;70671;43.888;-79.394;2023-06-22T04:58:59;10.73;;;4.90;;
81195;SDS011;70671;43.888;-79.394;2023-06-22T05:01:26;9.27;;;4.57;;
81195;SDS011;70671;43.888;-79.394;2023-06-22T05:03:52;11.75;;;5.47;;
81195;SDS011;70671;43.888;-79.394;2023-06-22T05:06:25;11.80;;;5.63;;
81195;SDS011;70671;43.888;-79.394;2023-06-22T05:08:52;12.50;;;6.00;;
81195;SDS011;70671;43.888;-79.394;2023-06-22T05:11:23;9.80;;;4.40;;
81195;SDS011;70671;43.888;-79.394;2023-06-22T05:13:50;12.20;;;6.00;;
81195;SDS011;70671;43.888;-79.394;2023-06-22T05:16:16;11.52;;;5.93;;
81195;SDS011;70671;43.888;-79.394;2023-06-22T05:18:42;12.15;;;6.20;;
81195;SDS011;70671;43.888;-79.394;2023-06-22T05:21:08;12.45;;;6.20;;
81195;SDS011;70671;43.888;-79.394;2023-06-22T05:23:34;12.02;;;6.00;;
81195;SDS011;70671;43.888;-79.394;2023-06-22T05:26:00;11.45;;;5.90;;
81195;SDS011;70671;43.888;-79.394;2023-06-22T05:28:26;11.98;;;5.97;;
81195;SDS011;70671;43.888;-79.394;2023-06-22T05:30:52;13.55;;;5.32;;
81195;SDS011;70671;43.888;-79.394;2023-06-22T05:33:18;10.32;;;6.03;;
81195;SDS011;70671;43.888;-79.394;2023-06-22T05:35:44;12.65;;;5.95;;
81195;SDS011;70671;43.888;-79.394;2023-06-22T05:38:10;11.65;;;5.50;;
81195;SDS011;70671;43.888;-79.394;2023-06-22T05:40:36;12.20;;;6.38;;
81195;SDS011;70671;43.888;-79.394;2023-06-22T05:43:02;17.60;;;7.10;;
81195;SDS011;70671;43.888;-79.394;2023-06-22T05:45:28;11.65;;;5.88;;
81195;SDS011;70671;43.888;-79.394;2023-06-22T05:47:54;11.85;;;6.20;;
81195;SDS011;70671;43.888;-79.394;2023-06-22T05:50:20;14.43;;;7.30;;
81195;SDS011;70671;43.888;-79.394;2023-06-22T05:52:46;13.27;;;6.05;;
81195;SDS011;70671;43.888;-79.394;2023-06-22T05:55:12;11.30;;;6.53;;
81195;SDS011;70671;43.888;-79.394;2023-06-22T05:57:38;11.90;;;5.68;;
81195;SDS011;70671;43.888;-79.394;2023-06-22T06:00:04;11.95;;;6.65;;
81195;SDS011;70671;43.888;-79.394;2023-06-22T06:02:35;14.00;;;6.18;;
81195;SDS011;70671;43.888;-79.394;2023-06-22T06:05:01;11.23;;;6.22;;
81195;SDS011;70671;43.888;-79.394;2023-06-22T06:07:28;12.43;;;6.15;;
81195;SDS011;70671;43.888;-79.394;2023-06-22T06:09:55;13.80;;;7.32;;
81195;SDS011;70671;43.888;-79.394;2023-06-22T06:12:21;13.63;;;7.20;;
81195;SDS011;70671;43.888;-79.394;2023-06-22T06:14:46;14.88;;;7.25;;
81195;SDS011;70671;43.888;-79.394;2023-06-22T06:17:13;13.85;;;7.10;;
81195;SDS011;70671;43.888;-79.394;2023-06-22T06:19:40;13.88;;;6.97;;
81195;SDS011;70671;43.888;-79.394;2023-06-22T06:22:06;12.65;;;7.13;;
81195;SDS011;70671;43.888;-79.394;2023-06-22T06:24:32;14.20;;;6.78;;
81195;SDS011;70671;43.888;-79.394;2023-06-22T06:26:58;12.80;;;6.25;;
81195;SDS011;70671;43.888;-79.394;2023-06-22T06:29:24;15.32;;;8.95;;
81195;SDS011;70671;43.888;-79.394;2023-06-22T06:31:51;14.57;;;7.82;;
81195;SDS011;70671;43.888;-79.394;2023-06-22T06:34:17;13.38;;;7.38;;
81195;SDS011;70671;43.888;-79.394;2023-06-22T06:36:43;14.25;;;7.88;;
81195;SDS011;70671;43.888;-79.394;2023-06-22T06:39:10;15.02;;;8.25;;
81195;SDS011;70671;43.888;-79.394;2023-06-22T06:41:36;13.57;;;7.13;;
81195;SDS011;70671;43.888;-79.394;2023-06-22T06:44:02;14.55;;;7.75;;
81195;SDS011;70671;43.888;-79.394;2023-06-22T06:46:28;14.50;;;8.30;;
81195;SDS011;70671;43.888;-79.394;2023-06-22T06:48:54;17.20;;;7.93;;
81195;SDS011;70671;43.888;-79.394;2023-06-22T06:51:20;17.27;;;8.38;;
81195;SDS011;70671;43.888;-79.394;2023-06-22T06:53:46;15.07;;;8.18;;
81195;SDS011;70671;43.888;-79.394;2023-06-22T06:56:12;14.85;;;7.47;;
81195;SDS011;70671;43.888;-79.394;2023-06-22T06:58:42;14.82;;;8.48;;
81195;SDS011;70671;43.888;-79.394;2023-06-22T07:01:10;15.90;;;8.38;;
81195;SDS011;70671;43.888;-79.394;2023-06-22T07:03:38;14.77;;;8.57;;
81195;SDS011;70671;43.888;-79.394;2023-06-22T07:06:04;17.08;;;8.27;;
81195;SDS011;70671;43.888;-79.394;2023-06-22T07:08:30;15.35;;;8.15;;
81195;SDS011;70671;43.888;-79.394;2023-06-22T07:10:56;15.63;;;7.72;;
81195;SDS011;70671;43.888;-79.394;2023-06-22T07:13:22;16.52;;;8.07;;
81195;SDS011;70671;43.888;-79.394;2023-06-22T07:15:48;15.52;;;8.50;;
81195;SDS011;70671;43.888;-79.394;2023-06-22T07:18:14;17.73;;;8.77;;
81195;SDS011;70671;43.888;-79.394;2023-06-22T07:20:40;14.15;;;7.82;;
81195;SDS011;70671;43.888;-79.394;2023-06-22T07:23:06;14.95;;;8.27;;
81195;SDS011;70671;43.888;-79.394;2023-06-22T07:25:32;15.65;;;8.15;;
81195;SDS011;70671;43.888;-79.394;2023-06-22T07:27:59;14.30;;;7.57;;
81195;SDS011;70671;43.888;-79.394;2023-06-22T07:30:26;16.25;;;8.73;;
81195;SDS011;70671;43.888;-79.394;2023-06-22T07:32:53;17.17;;;9.00;;
81195;SDS011;70671;43.888;-79.394;2023-06-22T07:35:19;14.57;;;8.52;;
81195;SDS011;70671;43.888;-79.394;2023-06-22T07:37:45;18.00;;;8.02;;
81195;SDS011;70671;43.888;-79.394;2023-06-22T07:40:11;16.02;;;7.40;;
81195;SDS011;70671;43.888;-79.394;2023-06-22T07:42:38;16.17;;;9.25;;
81195;SDS011;70671;43.888;-79.394;2023-06-22T07:45:04;14.45;;;7.82;;
81195;SDS011;70671;43.888;-79.394;2023-06-22T07:47:34;15.05;;;9.43;;
81195;SDS011;70671;43.888;-79.394;2023-06-22T07:50:01;17.55;;;9.55;;
81195;SDS011;70671;43.888;-79.394;2023-06-22T07:52:28;16.85;;;9.63;;
81195;SDS011;70671;43.888;-79.394;2023-06-22T07:54:54;19.00;;;9.20;;
81195;SDS011;70671;43.888;-79.394;2023-06-22T07:57:21;17.52;;;9.27;;
81195;SDS011;70671;43.888;-79.394;2023-06-22T08:00:02;16.67;;;9.10;;
81195;SDS011;70671;43.888;-79.394;2023-06-22T08:02:36;19.52;;;9.52;;
81195;SDS011;70671;43.888;-79.394;2023-06-22T08:05:02;16.42;;;9.40;;
81195;SDS011;70671;43.888;-79.394;2023-06-22T08:07:29;16.08;;;8.63;;
81195;SDS011;70671;43.888;-79.394;2023-06-22T08:09:58;18.35;;;9.27;;
81195;SDS011;70671;43.888;-79.394;2023-06-22T08:12:24;16.90;;;9.93;;
81195;SDS011;70671;43.888;-79.394;2023-06-22T08:14:50;16.23;;;9.00;;
81195;SDS011;70671;43.888;-79.394;2023-06-22T08:17:17;18.42;;;9.73;;
81195;SDS011;70671;43.888;-79.394;2023-06-22T08:19:44;17.50;;;9.90;;
81195;SDS011;70671;43.888;-79.394;2023-06-22T08:22:10;19.98;;;11.25;;
81195;SDS011;70671;43.888;-79.394;2023-06-22T08:24:36;17.92;;;10.43;;
81195;SDS011;70671;43.888;-79.394;2023-06-22T08:27:02;19.27;;;10.00;;
81195;SDS011;70671;43.888;-79.394;2023-06-22T08:29:28;17.00;;;9.35;;
81195;SDS011;70671;43.888;-79.394;2023-06-22T08:31:54;16.90;;;10.35;;
81195;SDS011;70671;43.888;-79.394;2023-06-22T08:34:20;17.55;;;9.57;;
81195;SDS011;70671;43.888;-79.394;2023-06-22T08:36:48;18.13;;;10.18;;
81195;SDS011;70671;43.888;-79.394;2023-06-22T08:39:18;17.88;;;9.55;;
81195;SDS011;70671;43.888;-79.394;2023-06-22T08:41:46;18.10;;;10.43;;
81195;SDS011;70671;43.888;-79.394;2023-06-22T08:44:12;16.88;;;9.75;;
81195;SDS011;70671;43.888;-79.394;2023-06-22T08:46:40;19.00;;;10.32;;
81195;SDS011;70671;43.888;-79.394;2023-06-22T08:49:07;18.33;;;10.07;;
81195;SDS011;70671;43.888;-79.394;2023-06-22T08:51:35;19.75;;;9.85;;
81195;SDS011;70671;43.888;-79.394;2023-06-22T08:54:01;18.85;;;10.20;;
81195;SDS011;70671;43.888;-79.394;2023-06-22T08:56:27;18.13;;;10.00;;
81195;SDS011;70671;43.888;-79.394;2023-06-22T08:58:53;18.80;;;10.77;;
81195;SDS011;70671;43.888;-79.394;2023-06-22T09:01:20;17.85;;;10.40;;
81195;SDS011;70671;43.888;-79.394;2023-06-22T09:03:45;17.17;;;10.25;;
81195;SDS011;70671;43.888;-79.394;2023-06-22T09:06:21;19.85;;;10.38;;
81195;SDS011;70671;43.888;-79.394;2023-06-22T09:08:47;19.92;;;10.60;;
81195;SDS011;70671;43.888;-79.394;2023-06-22T09:11:14;19.38;;;9.88;;
81195;SDS011;70671;43.888;-79.394;2023-06-22T09:13:40;21.30;;;10.50;;
81195;SDS011;70671;43.888;-79.394;2023-06-22T09:16:08;21.48;;;10.77;;
81195;SDS011;70671;43.888;-79.394;2023-06-22T09:18:34;18.08;;;10.38;;
81195;SDS011;70671;43.888;-79.394;2023-06-22T09:21:01;19.42;;;10.20;;
81195;SDS011;70671;43.888;-79.394;2023-06-22T09:23:27;19.52;;;10.70;;
81195;SDS011;70671;43.888;-79.394;2023-06-22T09:25:54;20.25;;;11.05;;
81195;SDS011;70671;43.888;-79.394;2023-06-22T09:28:20;18.75;;;10.77;;
81195;SDS011;70671;43.888;-79.394;2023-06-22T09:30:45;21.15;;;12.27;;
81195;SDS011;70671;43.888;-79.394;2023-06-22T09:33:12;18.75;;;10.77;;
81195;SDS011;70671;43.888;-79.394;2023-06-22T09:35:37;18.58;;;10.85;;
81195;SDS011;70671;43.888;-79.394;2023-06-22T09:38:03;20.38;;;11.75;;
81195;SDS011;70671;43.888;-79.394;2023-06-22T09:40:30;22.05;;;11.15;;
81195;SDS011;70671;43.888;-79.394;2023-06-22T09:42:57;22.40;;;11.52;;
81195;SDS011;70671;43.888;-79.394;2023-06-22T09:45:23;20.88;;;11.88;;
81195;SDS011;70671;43.888;-79.394;2023-06-22T09:47:49;21.65;;;11.32;;
81195;SDS011;70671;43.888;-79.394;2023-06-22T09:50:15;19.70;;;11.30;;
81195;SDS011;70671;43.888;-79.394;2023-06-22T09:52:42;21.38;;;12.85;;
81195;SDS011;70671;43.888;-79.394;2023-06-22T09:55:11;19.88;;;11.18;;
81195;SDS011;70671;43.888;-79.394;2023-06-22T09:57:37;20.90;;;11.98;;
81195;SDS011;70671;43.888;-79.394;2023-06-22T10:00:03;21.27;;;13.07;;
81195;SDS011;70671;43.888;-79.394;2023-06-22T10:02:33;23.30;;;13.05;;
81195;SDS011;70671;43.888;-79.394;2023-06-22T10:04:59;20.88;;;11.68;;
81195;SDS011;70671;43.888;-79.394;2023-06-22T10:07:25;22.63;;;12.15;;
81195;SDS011;70671;43.888;-79.394;2023-06-22T10:09:51;23.70;;;13.15;;
81195;SDS011;70671;43.888;-79.394;2023-06-22T10:12:17;21.35;;;13.48;;
81195;SDS011;70671;43.888;-79.394;2023-06-22T10:14:43;20.88;;;12.10;;
81195;SDS011;70671;43.888;-79.394;2023-06-22T10:17:09;23.13;;;12.40;;
81195;SDS011;70671;43.888;-79.394;2023-06-22T10:19:35;22.38;;;13.13;;
81195;SDS011;70671;43.888;-79.394;2023-06-22T10:22:03;22.58;;;11.90;;
81195;SDS011;70671;43.888;-79.394;2023-06-22T10:24:30;21.15;;;11.80;;
81195;SDS011;70671;43.888;-79.394;2023-06-22T10:26:56;23.48;;;12.75;;
81195;SDS011;70671;43.888;-79.394;2023-06-22T10:29:22;20.58;;;12.15;;
81195;SDS011;70671;43.888;-79.394;2023-06-22T10:31:48;21.48;;;11.80;;
81195;SDS011;70671;43.888;-79.394;2023-06-22T10:34:14;19.88;;;11.65;;
81195;SDS011;70671;43.888;-79.394;2023-06-22T10:36:40;21.02;;;11.73;;
81195;SDS011;70671;43.888;-79.394;2023-06-22T10:39:06;21.05;;;11.93;;
81195;SDS011;70671;43.888;-79.394;2023-06-22T10:41:32;17.48;;;10.82;;
81195;SDS011;70671;43.888;-79.394;2023-06-22T10:43:58;19.02;;;10.90;;
81195;SDS011;70671;43.888;-79.394;2023-06-22T10:46:24;22.83;;;12.32;;
81195;SDS011;70671;43.888;-79.394;2023-06-22T10:48:53;20.20;;;11.55;;
81195;SDS011;70671;43.888;-79.394;2023-06-22T10:51:21;22.65;;;13.23;;
81195;SDS011;70671;43.888;-79.394;2023-06-22T10:53:46;19.73;;;11.05;;
81195;SDS011;70671;43.888;-79.394;2023-06-22T10:56:12;19.40;;;11.23;;
81195;SDS011;70671;43.888;-79.394;2023-06-22T10:58:38;22.88;;;12.77;;
81195;SDS011;70671;43.888;-79.394;2023-06-22T11:01:04;22.10;;;12.35;;
81195;SDS011;70671;43.888;-79.394;2023-06-22T11:03:30;24.08;;;13.38;;
81195;SDS011;70671;43.888;-79.394;2023-06-22T11:05:56;22.08;;;12.13;;
81195;SDS011;70671;43.888;-79.394;2023-06-22T11:08:22;22.70;;;12.13;;
81195;SDS011;70671;43.888;-79.394;2023-06-22T11:10:51;21.30;;;12.60;;
81195;SDS011;70671;43.888;-79.394;2023-06-22T11:13:17;18.30;;;11.00;;
81195;SDS011;70671;43.888;-79.394;2023-06-22T11:15:49;23.23;;;12.38;;
81195;SDS011;70671;43.888;-79.394;2023-06-22T11:18:15;28.17;;;12.73;;
81195;SDS011;70671;43.888;-79.394;2023-06-22T11:20:42;22.52;;;12.40;;
81195;SDS011;70671;43.888;-79.394;2023-06-22T11:23:07;21.38;;;12.48;;
81195;SDS011;70671;43.888;-79.394;2023-06-22T11:25:34;19.92;;;11.13;;
81195;SDS011;70671;43.888;-79.394;2023-06-22T11:28:03;22.08;;;12.15;;
81195;SDS011;70671;43.888;-79.394;2023-06-22T11:30:30;21.77;;;12.70;;
81195;SDS011;70671;43.888;-79.394;2023-06-22T11:32:57;22.48;;;11.50;;
81195;SDS011;70671;43.888;-79.394;2023-06-22T11:35:24;23.00;;;12.10;;
81195;SDS011;70671;43.888;-79.394;2023-06-22T11:37:50;18.85;;;10.68;;
81195;SDS011;70671;43.888;-79.394;2023-06-22T11:40:16;23.05;;;13.27;;
81195;SDS011;70671;43.888;-79.394;2023-06-22T11:42:43;22.80;;;10.98;;
81195;SDS011;70671;43.888;-79.394;2023-06-22T11:45:09;19.30;;;11.05;;
81195;SDS011;70671;43.888;-79.394;2023-06-22T11:47:35;19.70;;;11.35;;
81195;SDS011;70671;43.888;-79.394;2023-06-22T11:50:02;17.38;;;10.13;;
81195;SDS011;70671;43.888;-79.394;2023-06-22T11:52:28;21.13;;;10.68;;
81195;SDS011;70671;43.888;-79.394;2023-06-22T11:54:54;17.98;;;10.00;;
81195;SDS011;70671;43.888;-79.394;2023-06-22T11:57:20;18.83;;;9.55;;
81195;SDS011;70671;43.888;-79.394;2023-06-22T11:59:46;20.33;;;9.32;;
81195;SDS011;70671;43.888;-79.394;2023-06-22T12:02:12;17.00;;;10.63;;
81195;SDS011;70671;43.888;-79.394;2023-06-22T12:04:38;19.90;;;10.60;;
81195;SDS011;70671;43.888;-79.394;2023-06-22T12:07:04;17.23;;;9.80;;
81195;SDS011;70671;43.888;-79.394;2023-06-22T12:09:30;14.98;;;8.55;;
81195;SDS011;70671;43.888;-79.394;2023-06-22T12:11:57;18.15;;;10.13;;
81195;SDS011;70671;43.888;-79.394;2023-06-22T12:14:24;16.45;;;8.93;;
81195;SDS011;70671;43.888;-79.394;2023-06-22T12:16:50;15.40;;;8.50;;
81195;SDS011;70671;43.888;-79.394;2023-06-22T12:19:23;15.38;;;9.00;;
81195;SDS011;70671;43.888;-79.394;2023-06-22T12:21:49;15.65;;;8.85;;
81195;SDS011;70671;43.888;-79.394;2023-06-22T12:24:16;19.17;;;9.23;;
81195;SDS011;70671;43.888;-79.394;2023-06-22T12:26:42;14.57;;;8.40;;
81195;SDS011;70671;43.888;-79.394;2023-06-22T12:29:08;17.17;;;7.90;;
81195;SDS011;70671;43.888;-79.394;2023-06-22T12:31:35;17.77;;;8.95;;
81195;SDS011;70671;43.888;-79.394;2023-06-22T12:34:04;14.13;;;7.97;;
81195;SDS011;70671;43.888;-79.394;2023-06-22T12:36:30;15.88;;;8.10;;
81195;SDS011;70671;43.888;-79.394;2023-06-22T12:38:56;16.02;;;8.38;;
81195;SDS011;70671;43.888;-79.394;2023-06-22T12:41:22;13.65;;;7.85;;
81195;SDS011;70671;43.888;-79.394;2023-06-22T12:43:48;15.27;;;8.07;;
81195;SDS011;70671;43.888;-79.394;2023-06-22T12:46:14;14.73;;;7.50;;
81195;SDS011;70671;43.888;-79.394;2023-06-22T12:48:40;15.93;;;7.25;;
81195;SDS011;70671;43.888;-79.394;2023-06-22T12:51:08;17.27;;;7.35;;
81195;SDS011;70671;43.888;-79.394;2023-06-22T12:53:35;12.95;;;6.78;;
81195;SDS011;70671;43.888;-79.394;2023-06-22T12:56:01;13.88;;;5.97;;
81195;SDS011;70671;43.888;-79.394;2023-06-22T12:58:27;15.18;;;7.28;;
81195;SDS011;70671;43.888;-79.394;2023-06-22T13:00:53;13.73;;;6.20;;
81195;SDS011;70671;43.888;-79.394;2023-06-22T13:03:19;8.55;;;4.80;;
81195;SDS011;70671;43.888;-79.394;2023-06-22T13:05:45;11.07;;;4.65;;
81195;SDS011;70671;43.888;-79.394;2023-06-22T13:08:11;9.95;;;5.05;;
81195;SDS011;70671;43.888;-79.394;2023-06-22T13:10:37;10.52;;;3.45;;
81195;SDS011;70671;43.888;-79.394;2023-06-22T13:13:04;6.47;;;2.90;;
81195;SDS011;70671;43.888;-79.394;2023-06-22T13:15:30;7.45;;;3.15;;
81195;SDS011;70671;43.888;-79.394;2023-06-22T13:17:56;8.00;;;3.45;;
81195;SDS011;70671;43.888;-79.394;2023-06-22T13:20:22;6.20;;;2.92;;
81195;SDS011;70671;43.888;-79.394;2023-06-22T13:22:50;6.60;;;3.10;;
81195;SDS011;70671;43.888;-79.394;2023-06-22T13:25:16;7.45;;;3.47;;
81195;SDS011;70671;43.888;-79.394;2023-06-22T13:27:44;6.80;;;3.20;;
81195;SDS011;70671;43.888;-79.394;2023-06-22T13:30:10;5.13;;;2.20;;
81195;SDS011;70671;43.888;-79.394;2023-06-22T13:32:36;6.72;;;2.80;;
81195;SDS011;70671;43.888;-79.394;2023-06-22T13:35:02;9.75;;;2.88;;
81195;SDS011;70671;43.888;-79.394;2023-06-22T13:37:29;6.65;;;2.80;;
81195;SDS011;70671;43.888;-79.394;2023-06-22T13:39:55;6.30;;;2.40;;
81195;SDS011;70671;43.888;-79.394;2023-06-22T13:42:21;6.38;;;2.80;;
81195;SDS011;70671;43.888;-79.394;2023-06-22T13:44:47;5.47;;;2.70;;
81195;SDS011;70671;43.888;-79.394;2023-06-22T13:47:13;7.40;;;2.90;;
81195;SDS011;70671;43.888;-79.394;2023-06-22T13:49:39;6.53;;;2.92;;
81195;SDS011;70671;43.888;-79.394;2023-06-22T13:52:05;9.48;;;2.78;;
81195;SDS011;70671;43.888;-79.394;2023-06-22T13:54:35;7.65;;;2.35;;
81195;SDS011;70671;43.888;-79.394;2023-06-22T13:57:02;6.43;;;1.88;;
81195;SDS011;70671;43.888;-79.394;2023-06-22T13:59:28;8.80;;;3.05;;
81195;SDS011;70671;43.888;-79.394;2023-06-22T14:01:54;7.78;;;2.63;;
81195;SDS011;70671;43.888;-79.394;2023-06-22T14:04:21;5.60;;;2.30;;
81195;SDS011;70671;43.888;-79.394;2023-06-22T14:06:48;6.60;;;2.53;;
81195;SDS011;70671;43.888;-79.394;2023-06-22T14:09:14;5.47;;;2.58;;
81195;SDS011;70671;43.888;-79.394;2023-06-22T14:11:40;8.15;;;2.53;;
81195;SDS011;70671;43.888;-79.394;2023-06-22T14:14:06;6.55;;;2.13;;